sensor_id;sensor_type;location;lat;lon;timestamp;pressure;altitude;pressure_sealevel;temperature;humidity
9187;BME280;7273;48.902;9.410;2022-12-18T00:02:05;99144.22;;;-6.98;78.70
9187;BME280;7273;48.902;9.410;2022-12-18T00:04:30;99139.06;;;-6.80;78.95
9187;BME280;7273;48.902;9.410;2022-12-18T00:06:56;99147.09;;;-6.72;78.93
9187;BME280;7273;48.902;9.410;2022-12-18T00:09:21;99154.72;;;-6.88;78.83
9187;BME280;7273;48.902;9.410;2022-12-18T00:11:47;99158.03;;;-6.86;78.87
9187;BME280;7273;48.902;9.410;2022-12-18T00:14:13;99155.44;;;-6.96;78.83
9187;BME280;7273;48.902;9.410;2022-12-18T00:16:39;99158.34;;;-6.99;78.73
9187;BME280;7273;48.902;9.410;2022-12-18T00:19:05;99157.50;;;-7.00;78.94
9187;BME280;7273;48.902;9.410;2022-12-18T00:21:33;99153.34;;;-7.02;78.77
9187;BME280;7273;48.902;9.410;2022-12-18T00:23:59;99150.84;;;-7.04;78.54
9187;BME280;7273;48.902;9.410;2022-12-18T00:26:30;99148.09;;;-6.93;78.77
9187;BME280;7273;48.902;9.410;2022-12-18T00:29:01;99158.22;;;-7.07;78.58
9187;BME280;7273;48.902;9.410;2022-12-18T00:31:27;99155.84;;;-7.01;78.74
9187;BME280;7273;48.902;9.410;2022-12-18T00:33:56;99152.13;;;-7.08;78.70
9187;BME280;7273;48.902;9.410;2022-12-18T00:36:28;99160.44;;;-7.12;78.79
9187;BME280;7273;48.902;9.410;2022-12-18T00:38:55;99153.91;;;-7.08;78.52
9187;BME280;7273;48.902;9.410;2022-12-18T00:41:21;99162.34;;;-7.14;78.70
9187;BME280;7273;48.902;9.410;2022-12-18T00:44:06;99151.69;;;-7.03;78.46
9187;BME280;7273;48.902;9.410;2022-12-18T00:46:33;99162.91;;;-7.11;78.62
9187;BME280;7273;48.902;9.410;2022-12-18T00:48:58;99157.53;;;-7.09;78.63
9187;BME280;7273;48.902;9.410;2022-12-18T00:51:24;99162.63;;;-7.08;78.79
9187;BME280;7273;48.902;9.410;2022-12-18T00:53:50;99165.41;;;-7.09;78.45
9187;BME280;7273;48.902;9.410;2022-12-18T00:56:15;99160.53;;;-7.23;78.54
9187;BME280;7273;48.902;9.410;2022-12-18T00:58:41;99148.53;;;-7.26;78.45
9187;BME280;7273;48.902;9.410;2022-12-18T01:01:07;99143.13;;;-7.34;78.38
9187;BME280;7273;48.902;9.410;2022-12-18T01:03:32;99142.00;;;-7.31;78.59
9187;BME280;7273;48.902;9.410;2022-12-18T01:05:58;99145.91;;;-7.35;78.61
9187;BME280;7273;48.902;9.410;2022-12-18T01:08:23;99146.88;;;-7.17;78.77
9187;BME280;7273;48.902;9.410;2022-12-18T01:10:49;99153.06;;;-7.18;78.37
9187;BME280;7273;48.902;9.410;2022-12-18T01:13:14;99146.88;;;-7.17;78.81
9187;BME280;7273;48.902;9.410;2022-12-18T01:15:40;99153.63;;;-7.43;78.36
9187;BME280;7273;48.902;9.410;2022-12-18T01:18:06;99144.38;;;-7.28;78.28
9187;BME280;7273;48.902;9.410;2022-12-18T01:20:31;99151.84;;;-7.33;78.63
9187;BME280;7273;48.902;9.410;2022-12-18T01:22:57;99161.94;;;-7.29;78.45
9187;BME280;7273;48.902;9.410;2022-12-18T01:25:23;99162.31;;;-7.43;78.42
9187;BME280;7273;48.902;9.410;2022-12-18T01:27:48;99169.41;;;-7.34;78.48
9187;BME280;7273;48.902;9.410;2022-12-18T01:30:13;99167.47;;;-7.32;78.43
9187;BME280;7273;48.902;9.410;2022-12-18T01:32:39;99172.03;;;-7.24;78.50
9187;BME280;7273;48.902;9.410;2022-12-18T01:35:05;99179.91;;;-7.34;78.28
9187;BME280;7273;48.902;9.410;2022-12-18T01:37:31;99177.84;;;-7.30;78.51
9187;BME280;7273;48.902;9.410;2022-12-18T01:39:56;99178.78;;;-7.41;78.53
9187;BME280;7273;48.902;9.410;2022-12-18T01:42:21;99171.59;;;-7.29;78.27
9187;BME280;7273;48.902;9.410;2022-12-18T01:45:03;99172.88;;;-7.24;78.49
9187;BME280;7273;48.902;9.410;2022-12-18T01:52:41;99165.94;;;-7.34;78.30
9187;BME280;7273;48.902;9.410;2022-12-18T01:55:09;99162.59;;;-7.36;78.17
9187;BME280;7273;48.902;9.410;2022-12-18T01:57:35;99170.78;;;-7.30;78.18
9187;BME280;7273;48.902;9.410;2022-12-18T02:00:06;99172.03;;;-7.43;77.99
9187;BME280;7273;48.902;9.410;2022-12-18T02:02:33;99171.59;;;-7.39;77.85
9187;BME280;7273;48.902;9.410;2022-12-18T02:04:59;99164.28;;;-7.35;78.02
9187;BME280;7273;48.902;9.410;2022-12-18T02:10:26;99169.13;;;-7.50;77.77
9187;BME280;7273;48.902;9.410;2022-12-18T02:15:51;99158.75;;;-7.42;78.06
9187;BME280;7273;48.902;9.410;2022-12-18T02:18:41;99159.28;;;-7.48;78.31
9187;BME280;7273;48.902;9.410;2022-12-18T02:27:04;99175.72;;;-7.55;78.16
9187;BME280;7273;48.902;9.410;2022-12-18T02:29:36;99179.56;;;-7.69;78.04
9187;BME280;7273;48.902;9.410;2022-12-18T02:32:08;99181.81;;;-7.64;78.29
9187;BME280;7273;48.902;9.410;2022-12-18T02:34:38;99187.88;;;-7.64;78.16
9187;BME280;7273;48.902;9.410;2022-12-18T02:37:07;99174.47;;;-7.61;78.07
9187;BME280;7273;48.902;9.410;2022-12-18T02:39:36;99168.78;;;-7.66;78.46
9187;BME280;7273;48.902;9.410;2022-12-18T02:42:03;99157.47;;;-7.66;78.35
9187;BME280;7273;48.902;9.410;2022-12-18T02:44:33;99165.78;;;-7.61;78.54
9187;BME280;7273;48.902;9.410;2022-12-18T02:46:59;99182.34;;;-7.61;78.45
9187;BME280;7273;48.902;9.410;2022-12-18T02:49:49;99184.44;;;-7.64;78.39
9187;BME280;7273;48.902;9.410;2022-12-18T03:00:12;99189.41;;;-7.61;78.43
9187;BME280;7273;48.902;9.410;2022-12-18T03:05:33;99195.69;;;-7.83;78.19
9187;BME280;7273;48.902;9.410;2022-12-18T03:08:12;99192.53;;;-7.67;78.46
9187;BME280;7273;48.902;9.410;2022-12-18T03:10:45;99194.06;;;-7.74;78.42
9187;BME280;7273;48.902;9.410;2022-12-18T03:13:20;99196.72;;;-7.65;78.36
9187;BME280;7273;48.902;9.410;2022-12-18T03:15:50;99195.72;;;-7.64;78.18
9187;BME280;7273;48.902;9.410;2022-12-18T03:18:45;99194.53;;;-7.60;78.36
9187;BME280;7273;48.902;9.410;2022-12-18T03:21:12;99189.25;;;-7.60;78.34
9187;BME280;7273;48.902;9.410;2022-12-18T03:23:42;99189.38;;;-7.71;78.15
9187;BME280;7273;48.902;9.410;2022-12-18T03:26:12;99198.25;;;-7.53;78.47
9187;BME280;7273;48.902;9.410;2022-12-18T03:28:44;99208.50;;;-7.50;78.35
9187;BME280;7273;48.902;9.410;2022-12-18T03:31:12;99201.56;;;-7.60;78.29
9187;BME280;7273;48.902;9.410;2022-12-18T03:33:53;99206.16;;;-7.43;78.44
9187;BME280;7273;48.902;9.410;2022-12-18T03:36:19;99206.16;;;-7.43;78.54
9187;BME280;7273;48.902;9.410;2022-12-18T03:38:45;99205.63;;;-7.37;78.38
9187;BME280;7273;48.902;9.410;2022-12-18T03:49:57;99208.25;;;-7.37;78.34
9187;BME280;7273;48.902;9.410;2022-12-18T03:52:39;99202.69;;;-7.44;78.36
9187;BME280;7273;48.902;9.410;2022-12-18T03:55:09;99197.16;;;-7.41;78.20
9187;BME280;7273;48.902;9.410;2022-12-18T03:57:35;99197.84;;;-7.48;77.94
9187;BME280;7273;48.902;9.410;2022-12-18T04:00:08;99200.91;;;-7.43;77.92
9187;BME280;7273;48.902;9.410;2022-12-18T04:02:36;99194.00;;;-7.35;78.24
9187;BME280;7273;48.902;9.410;2022-12-18T04:05:06;99201.34;;;-7.38;77.85
9187;BME280;7273;48.902;9.410;2022-12-18T04:07:32;99200.38;;;-7.28;77.90
9187;BME280;7273;48.902;9.410;2022-12-18T04:09:59;99192.19;;;-7.34;77.97
9187;BME280;7273;48.902;9.410;2022-12-18T04:12:29;99196.47;;;-7.43;77.89
9187;BME280;7273;48.902;9.410;2022-12-18T04:14:54;99188.88;;;-7.46;77.84
9187;BME280;7273;48.902;9.410;2022-12-18T04:17:20;99203.63;;;-7.54;77.73
9187;BME280;7273;48.902;9.410;2022-12-18T04:19:46;99198.97;;;-7.41;78.03
9187;BME280;7273;48.902;9.410;2022-12-18T04:22:12;99199.09;;;-7.43;78.06
9187;BME280;7273;48.902;9.410;2022-12-18T04:24:37;99206.59;;;-7.38;78.02
9187;BME280;7273;48.902;9.410;2022-12-18T04:27:03;99199.50;;;-7.57;77.76
9187;BME280;7273;48.902;9.410;2022-12-18T04:29:28;99210.84;;;-7.47;78.09
9187;BME280;7273;48.902;9.410;2022-12-18T04:31:54;99207.53;;;-7.39;78.30
9187;BME280;7273;48.902;9.410;2022-12-18T04:34:20;99206.88;;;-7.32;78.13
9187;BME280;7273;48.902;9.410;2022-12-18T04:36:45;99216.25;;;-7.29;78.37
9187;BME280;7273;48.902;9.410;2022-12-18T04:39:11;99209.22;;;-7.29;78.11
9187;BME280;7273;48.902;9.410;2022-12-18T04:41:36;99212.56;;;-7.27;78.21
9187;BME280;7273;48.902;9.410;2022-12-18T04:44:02;99212.97;;;-7.12;78.55
9187;BME280;7273;48.902;9.410;2022-12-18T04:46:27;99220.84;;;-7.03;78.62
9187;BME280;7273;48.902;9.410;2022-12-18T04:48:53;99214.19;;;-6.97;78.79
9187;BME280;7273;48.902;9.410;2022-12-18T04:51:18;99206.72;;;-6.92;78.98
9187;BME280;7273;48.902;9.410;2022-12-18T04:53:44;99209.38;;;-6.82;78.90
9187;BME280;7273;48.902;9.410;2022-12-18T04:56:11;99214.22;;;-6.78;78.90
9187;BME280;7273;48.902;9.410;2022-12-18T04:58:39;99221.69;;;-6.73;78.93
9187;BME280;7273;48.902;9.410;2022-12-18T05:01:05;99219.91;;;-6.73;78.92
9187;BME280;7273;48.902;9.410;2022-12-18T05:03:32;99214.47;;;-6.62;78.77
9187;BME280;7273;48.902;9.410;2022-12-18T05:05:58;99204.25;;;-6.65;78.75
9187;BME280;7273;48.902;9.410;2022-12-18T05:08:23;99213.34;;;-6.59;79.07
9187;BME280;7273;48.902;9.410;2022-12-18T05:10:49;99210.03;;;-6.52;79.21
9187;BME280;7273;48.902;9.410;2022-12-18T05:13:14;99210.44;;;-6.47;79.13
9187;BME280;7273;48.902;9.410;2022-12-18T05:15:40;99203.94;;;-6.52;79.26
9187;BME280;7273;48.902;9.410;2022-12-18T05:18:07;99211.25;;;-6.46;79.29
9187;BME280;7273;48.902;9.410;2022-12-18T05:20:32;99207.78;;;-6.37;79.26
9187;BME280;7273;48.902;9.410;2022-12-18T05:22:57;99206.41;;;-6.41;79.36
9187;BME280;7273;48.902;9.410;2022-12-18T05:25:23;99201.53;;;-6.36;79.00
9187;BME280;7273;48.902;9.410;2022-12-18T05:27:49;99205.28;;;-6.29;79.34
9187;BME280;7273;48.902;9.410;2022-12-18T05:30:15;99206.50;;;-6.24;79.44
9187;BME280;7273;48.902;9.410;2022-12-18T05:32:41;99205.69;;;-6.24;79.05
9187;BME280;7273;48.902;9.410;2022-12-18T05:35:09;99201.25;;;-6.24;79.24
9187;BME280;7273;48.902;9.410;2022-12-18T05:37:34;99204.28;;;-6.19;79.53
9187;BME280;7273;48.902;9.410;2022-12-18T05:40:00;99201.91;;;-6.12;79.48
9187;BME280;7273;48.902;9.410;2022-12-18T05:42:26;99212.84;;;-6.07;79.51
9187;BME280;7273;48.902;9.410;2022-12-18T05:44:51;99224.72;;;-6.03;79.64
9187;BME280;7273;48.902;9.410;2022-12-18T05:47:17;99208.25;;;-6.05;79.70
9187;BME280;7273;48.902;9.410;2022-12-18T05:49:42;99203.66;;;-6.03;79.59
9187;BME280;7273;48.902;9.410;2022-12-18T05:52:08;99212.25;;;-6.01;79.50
9187;BME280;7273;48.902;9.410;2022-12-18T05:54:34;99222.34;;;-5.97;79.81
9187;BME280;7273;48.902;9.410;2022-12-18T05:56:59;99219.97;;;-5.90;79.78
9187;BME280;7273;48.902;9.410;2022-12-18T05:59:25;99226.22;;;-5.91;79.65
9187;BME280;7273;48.902;9.410;2022-12-18T06:01:50;99220.84;;;-5.99;79.33
9187;BME280;7273;48.902;9.410;2022-12-18T06:04:16;99229.00;;;-5.93;79.41
9187;BME280;7273;48.902;9.410;2022-12-18T06:06:42;99226.50;;;-6.04;79.11
9187;BME280;7273;48.902;9.410;2022-12-18T06:09:07;99222.69;;;-6.09;79.02
9187;BME280;7273;48.902;9.410;2022-12-18T06:11:36;99225.34;;;-6.19;78.84
9187;BME280;7273;48.902;9.410;2022-12-18T06:14:02;99219.91;;;-6.08;79.07
9187;BME280;7273;48.902;9.410;2022-12-18T06:16:28;99222.22;;;-6.05;79.05
9187;BME280;7273;48.902;9.410;2022-12-18T06:19:01;99224.91;;;-6.14;79.12
9187;BME280;7273;48.902;9.410;2022-12-18T06:21:28;99227.34;;;-6.03;79.26
9187;BME280;7273;48.902;9.410;2022-12-18T06:23:53;99226.69;;;-6.15;78.95
9187;BME280;7273;48.902;9.410;2022-12-18T06:26:19;99235.47;;;-6.24;78.62
9187;BME280;7273;48.902;9.410;2022-12-18T06:28:44;99225.88;;;-6.25;78.82
9187;BME280;7273;48.902;9.410;2022-12-18T06:31:11;99236.88;;;-6.39;78.47
9187;BME280;7273;48.902;9.410;2022-12-18T06:33:37;99233.00;;;-6.54;78.67
9187;BME280;7273;48.902;9.410;2022-12-18T06:36:09;99236.34;;;-6.52;78.61
9187;BME280;7273;48.902;9.410;2022-12-18T06:38:36;99233.72;;;-6.52;78.68
9187;BME280;7273;48.902;9.410;2022-12-18T06:41:10;99240.06;;;-6.54;78.66
9187;BME280;7273;48.902;9.410;2022-12-18T06:43:35;99231.50;;;-6.47;78.50
9187;BME280;7273;48.902;9.410;2022-12-18T06:46:02;99247.81;;;-6.53;78.50
9187;BME280;7273;48.902;9.410;2022-12-18T06:48:28;99238.81;;;-6.50;78.39
9187;BME280;7273;48.902;9.410;2022-12-18T06:50:53;99236.34;;;-6.61;78.33
9187;BME280;7273;48.902;9.410;2022-12-18T06:53:18;99235.25;;;-6.68;78.05
9187;BME280;7273;48.902;9.410;2022-12-18T06:55:44;99239.81;;;-6.70;78.23
9187;BME280;7273;48.902;9.410;2022-12-18T06:58:09;99243.56;;;-6.73;78.12
9187;BME280;7273;48.902;9.410;2022-12-18T07:00:35;99252.69;;;-6.86;77.94
9187;BME280;7273;48.902;9.410;2022-12-18T07:03:00;99259.31;;;-6.92;78.00
9187;BME280;7273;48.902;9.410;2022-12-18T07:05:26;99259.84;;;-6.98;77.95
9187;BME280;7273;48.902;9.410;2022-12-18T07:07:51;99256.38;;;-7.18;77.66
9187;BME280;7273;48.902;9.410;2022-12-18T07:10:17;99260.38;;;-7.23;77.84
9187;BME280;7273;48.902;9.410;2022-12-18T07:12:43;99253.44;;;-7.34;77.92
9187;BME280;7273;48.902;9.410;2022-12-18T07:15:09;99259.66;;;-7.35;77.98
9187;BME280;7273;48.902;9.410;2022-12-18T07:17:34;99267.44;;;-7.33;78.26
9187;BME280;7273;48.902;9.410;2022-12-18T07:19:59;99273.75;;;-7.36;78.17
9187;BME280;7273;48.902;9.410;2022-12-18T07:22:25;99267.09;;;-7.40;78.44
9187;BME280;7273;48.902;9.410;2022-12-18T07:24:51;99271.56;;;-7.31;78.34
9187;BME280;7273;48.902;9.410;2022-12-18T07:27:16;99271.28;;;-7.28;78.35
9187;BME280;7273;48.902;9.410;2022-12-18T07:29:42;99277.25;;;-7.26;78.37
9187;BME280;7273;48.902;9.410;2022-12-18T07:32:07;99279.19;;;-7.18;78.43
9187;BME280;7273;48.902;9.410;2022-12-18T07:34:33;99276.41;;;-7.26;78.25
9187;BME280;7273;48.902;9.410;2022-12-18T07:36:59;99280.72;;;-7.16;78.11
9187;BME280;7273;48.902;9.410;2022-12-18T07:39:24;99284.44;;;-7.28;78.08
9187;BME280;7273;48.902;9.410;2022-12-18T07:41:50;99287.88;;;-7.27;77.92
9187;BME280;7273;48.902;9.410;2022-12-18T07:44:34;99297.84;;;-7.21;77.93
9187;BME280;7273;48.902;9.410;2022-12-18T07:46:59;99291.91;;;-7.23;78.06
9187;BME280;7273;48.902;9.410;2022-12-18T07:49:24;99291.09;;;-7.24;78.00
9187;BME280;7273;48.902;9.410;2022-12-18T07:51:50;99293.41;;;-7.30;77.60
9187;BME280;7273;48.902;9.410;2022-12-18T07:54:15;99290.22;;;-7.34;77.82
9187;BME280;7273;48.902;9.410;2022-12-18T07:56:41;99299.59;;;-7.41;77.90
9187;BME280;7273;48.902;9.410;2022-12-18T07:59:06;99297.97;;;-7.32;78.20
9187;BME280;7273;48.902;9.410;2022-12-18T08:01:33;99302.25;;;-7.31;78.44
9187;BME280;7273;48.902;9.410;2022-12-18T08:03:59;99302.69;;;-7.26;78.36
9187;BME280;7273;48.902;9.410;2022-12-18T08:06:24;99302.69;;;-7.17;78.53
9187;BME280;7273;48.902;9.410;2022-12-18T08:08:53;99295.66;;;-7.07;78.63
9187;BME280;7273;48.902;9.410;2022-12-18T08:11:20;99295.16;;;-7.01;79.02
9187;BME280;7273;48.902;9.410;2022-12-18T08:13:45;99299.72;;;-6.93;78.95
9187;BME280;7273;48.902;9.410;2022-12-18T08:16:11;99305.13;;;-6.85;78.97
9187;BME280;7273;48.902;9.410;2022-12-18T08:18:37;99294.03;;;-6.79;79.03
9187;BME280;7273;48.902;9.410;2022-12-18T08:21:10;99302.50;;;-6.75;79.03
9187;BME280;7273;48.902;9.410;2022-12-18T08:23:36;99287.25;;;-6.62;78.83
9187;BME280;7273;48.902;9.410;2022-12-18T08:26:01;99287.16;;;-6.51;78.85
9187;BME280;7273;48.902;9.410;2022-12-18T08:28:27;99288.38;;;-6.46;79.00
9187;BME280;7273;48.902;9.410;2022-12-18T08:30:52;99293.22;;;-6.41;78.79
9187;BME280;7273;48.902;9.410;2022-12-18T08:33:18;99297.09;;;-6.36;78.78
9187;BME280;7273;48.902;9.410;2022-12-18T08:35:43;99297.94;;;-6.35;78.67
9187;BME280;7273;48.902;9.410;2022-12-18T08:38:09;99302.59;;;-6.20;78.84
9187;BME280;7273;48.902;9.410;2022-12-18T08:40:34;99302.47;;;-6.18;78.63
9187;BME280;7273;48.902;9.410;2022-12-18T08:42:59;99296.91;;;-6.15;78.52
9187;BME280;7273;48.902;9.410;2022-12-18T08:45:43;99296.34;;;-6.00;78.81
9187;BME280;7273;48.902;9.410;2022-12-18T08:48:09;99292.84;;;-5.91;78.81
9187;BME280;7273;48.902;9.410;2022-12-18T08:50:34;99293.59;;;-5.71;79.00
9187;BME280;7273;48.902;9.410;2022-12-18T08:53:00;99294.22;;;-5.50;79.37
9187;BME280;7273;48.902;9.410;2022-12-18T08:55:26;99287.72;;;-5.28;79.30
9187;BME280;7273;48.902;9.410;2022-12-18T08:57:51;99289.50;;;-5.02;79.47
9187;BME280;7273;48.902;9.410;2022-12-18T09:00:17;99296.63;;;-4.85;79.90
9187;BME280;7273;48.902;9.410;2022-12-18T09:02:42;99287.97;;;-4.60;79.76
9187;BME280;7273;48.902;9.410;2022-12-18T09:05:08;99289.66;;;-4.16;80.19
9187;BME280;7273;48.902;9.410;2022-12-18T09:07:34;99282.94;;;-3.59;79.81
9187;BME280;7273;48.902;9.410;2022-12-18T09:09:59;99283.84;;;-2.93;79.99
9187;BME280;7273;48.902;9.410;2022-12-18T09:12:25;99278.81;;;-2.14;79.49
9187;BME280;7273;48.902;9.410;2022-12-18T09:14:50;99272.06;;;-1.46;79.43
9187;BME280;7273;48.902;9.410;2022-12-18T09:17:16;99274.44;;;-1.59;78.85
9187;BME280;7273;48.902;9.410;2022-12-18T09:19:41;99268.66;;;-1.70;79.21
9187;BME280;7273;48.902;9.410;2022-12-18T09:22:07;99272.31;;;-1.71;79.43
9187;BME280;7273;48.902;9.410;2022-12-18T09:24:32;99272.88;;;-2.00;79.27
9187;BME280;7273;48.902;9.410;2022-12-18T09:26:58;99273.19;;;-1.87;79.52
9187;BME280;7273;48.902;9.410;2022-12-18T09:29:24;99269.88;;;-2.05;79.56
9187;BME280;7273;48.902;9.410;2022-12-18T09:31:49;99271.03;;;-2.15;79.36
9187;BME280;7273;48.902;9.410;2022-12-18T09:34:15;99270.38;;;-2.25;80.04
9187;BME280;7273;48.902;9.410;2022-12-18T09:36:42;99271.38;;;-2.18;79.76
9187;BME280;7273;48.902;9.410;2022-12-18T09:39:07;99269.22;;;-2.39;79.08
9187;BME280;7273;48.902;9.410;2022-12-18T09:41:46;99271.72;;;-2.37;79.54
9187;BME280;7273;48.902;9.410;2022-12-18T09:46:54;99257.31;;;-2.43;79.84
9187;BME280;7273;48.902;9.410;2022-12-18T09:49:25;99256.47;;;-2.59;79.56
9187;BME280;7273;48.902;9.410;2022-12-18T09:52:19;99255.00;;;-2.46;79.75
9187;BME280;7273;48.902;9.410;2022-12-18T09:54:49;99262.09;;;-2.54;79.68
9187;BME280;7273;48.902;9.410;2022-12-18T09:57:19;99261.09;;;-2.53;79.43
9187;BME280;7273;48.902;9.410;2022-12-18T09:59:53;99250.34;;;-2.60;79.39
9187;BME280;7273;48.902;9.410;2022-12-18T10:02:24;99256.47;;;-2.59;79.62
9187;BME280;7273;48.902;9.410;2022-12-18T10:05:05;99240.09;;;-2.55;79.37
9187;BME280;7273;48.902;9.410;2022-12-18T10:10:51;99244.75;;;-2.57;79.36
9187;BME280;7273;48.902;9.410;2022-12-18T10:16:19;99254.81;;;-2.52;79.01
9187;BME280;7273;48.902;9.410;2022-12-18T10:21:32;99245.72;;;-2.50;78.87
9187;BME280;7273;48.902;9.410;2022-12-18T10:26:41;99254.31;;;-2.56;78.72
9187;BME280;7273;48.902;9.410;2022-12-18T10:29:15;99255.81;;;-2.45;78.79
9187;BME280;7273;48.902;9.410;2022-12-18T10:31:40;99253.50;;;-2.40;78.75
9187;BME280;7273;48.902;9.410;2022-12-18T10:34:12;99258.47;;;-2.37;78.45
9187;BME280;7273;48.902;9.410;2022-12-18T10:36:38;99263.75;;;-2.45;78.29
9187;BME280;7273;48.902;9.410;2022-12-18T10:39:19;99252.50;;;-2.55;78.94
9187;BME280;7273;48.902;9.410;2022-12-18T10:41:47;99260.78;;;-2.42;78.61
9187;BME280;7273;48.902;9.410;2022-12-18T10:44:21;99258.31;;;-2.44;78.49
9187;BME280;7273;48.902;9.410;2022-12-18T10:46:55;99261.94;;;-2.45;78.56
9187;BME280;7273;48.902;9.410;2022-12-18T10:49:30;99264.59;;;-2.29;78.54
9187;BME280;7273;48.902;9.410;2022-12-18T10:52:19;99272.19;;;-2.26;78.48
9187;BME280;7273;48.902;9.410;2022-12-18T10:54:52;99269.88;;;-2.29;78.21
9187;BME280;7273;48.902;9.410;2022-12-18T10:59:55;99273.53;;;-2.22;78.00
9187;BME280;7273;48.902;9.410;2022-12-18T11:02:35;99270.38;;;-2.09;78.26
9187;BME280;7273;48.902;9.410;2022-12-18T11:05:02;99260.59;;;-2.01;77.87
9187;BME280;7273;48.902;9.410;2022-12-18T11:07:47;99249.97;;;-1.93;77.88
9187;BME280;7273;48.902;9.410;2022-12-18T11:10:18;99249.63;;;-1.90;78.05
9187;BME280;7273;48.902;9.410;2022-12-18T11:12:44;99249.81;;;-1.91;77.83
9187;BME280;7273;48.902;9.410;2022-12-18T11:15:20;99247.63;;;-1.80;77.81
9187;BME280;7273;48.902;9.410;2022-12-18T11:17:48;99240.69;;;-1.81;77.83
9187;BME280;7273;48.902;9.410;2022-12-18T11:20:27;99238.53;;;-1.77;77.56
9187;BME280;7273;48.902;9.410;2022-12-18T11:22:57;99238.81;;;-1.64;77.52
9187;BME280;7273;48.902;9.410;2022-12-18T11:25:23;99229.53;;;-1.68;77.47
9187;BME280;7273;48.902;9.410;2022-12-18T11:27:52;99226.69;;;-1.59;77.51
9187;BME280;7273;48.902;9.410;2022-12-18T11:30:28;99213.75;;;-1.54;77.50
9187;BME280;7273;48.902;9.410;2022-12-18T11:35:24;99209.78;;;-1.50;77.18
9187;BME280;7273;48.902;9.410;2022-12-18T11:38:44;99213.72;;;-1.46;77.08
9187;BME280;7273;48.902;9.410;2022-12-18T11:43:44;99212.69;;;-1.37;77.03
9187;BME280;7273;48.902;9.410;2022-12-18T11:46:26;99211.38;;;-1.41;76.75
9187;BME280;7273;48.902;9.410;2022-12-18T11:49:03;99209.69;;;-1.33;76.98
9187;BME280;7273;48.902;9.410;2022-12-18T11:51:45;99203.25;;;-1.39;77.12
9187;BME280;7273;48.902;9.410;2022-12-18T11:54:15;99210.03;;;-1.37;76.94
9187;BME280;7273;48.902;9.410;2022-12-18T11:56:51;99202.75;;;-1.34;76.97
9187;BME280;7273;48.902;9.410;2022-12-18T12:04:56;99206.16;;;-1.26;76.80
9187;BME280;7273;48.902;9.410;2022-12-18T12:18:32;99181.66;;;-1.28;76.68
9187;BME280;7273;48.902;9.410;2022-12-18T12:21:16;99175.16;;;-1.25;76.74
9187;BME280;7273;48.902;9.410;2022-12-18T12:24:11;99171.97;;;-1.21;76.55
9187;BME280;7273;48.902;9.410;2022-12-18T12:39:54;99172.22;;;-1.08;76.28
9187;BME280;7273;48.902;9.410;2022-12-18T12:45:22;99173.31;;;-0.94;76.00
9187;BME280;7273;48.902;9.410;2022-12-18T12:47:52;99182.00;;;-1.00;76.05
9187;BME280;7273;48.902;9.410;2022-12-18T12:50:20;99181.81;;;-0.99;76.10
9187;BME280;7273;48.902;9.410;2022-12-18T12:52:52;99179.16;;;-0.99;75.91
9187;BME280;7273;48.902;9.410;2022-12-18T12:55:24;99180.75;;;-0.90;76.23
9187;BME280;7273;48.902;9.410;2022-12-18T12:58:16;99177.53;;;-0.77;75.86
9187;BME280;7273;48.902;9.410;2022-12-18T13:00:56;99172.56;;;-0.80;76.27
9187;BME280;7273;48.902;9.410;2022-12-18T13:03:46;99176.38;;;-0.83;76.00
9187;BME280;7273;48.902;9.410;2022-12-18T13:08:57;99188.19;;;-0.85;76.03
9187;BME280;7273;48.902;9.410;2022-12-18T13:11:46;99188.19;;;-0.85;76.01
9187;BME280;7273;48.902;9.410;2022-12-18T13:14:34;99182.06;;;-0.86;75.96
9187;BME280;7273;48.902;9.410;2022-12-18T13:17:29;99175.25;;;-0.88;76.18
9187;BME280;7273;48.902;9.410;2022-12-18T13:20:06;99188.06;;;-0.92;75.95
9187;BME280;7273;48.902;9.410;2022-12-18T13:22:38;99184.81;;;-0.79;75.87
9187;BME280;7273;48.902;9.410;2022-12-18T13:25:36;99181.03;;;-0.85;76.04
9187;BME280;7273;48.902;9.410;2022-12-18T13:30:52;99191.84;;;-0.86;76.01
9187;BME280;7273;48.902;9.410;2022-12-18T13:41:02;99173.72;;;-0.83;76.27
9187;BME280;7273;48.902;9.410;2022-12-18T13:49:06;99164.72;;;-0.74;76.45
9187;BME280;7273;48.902;9.410;2022-12-18T13:51:44;99160.69;;;-0.70;76.13
9187;BME280;7273;48.902;9.410;2022-12-18T13:54:37;99157.38;;;-0.72;76.20
9187;BME280;7273;48.902;9.410;2022-12-18T13:57:05;99160.38;;;-0.75;75.97
9187;BME280;7273;48.902;9.410;2022-12-18T13:59:35;99160.50;;;-0.68;76.04
9187;BME280;7273;48.902;9.410;2022-12-18T14:02:12;99161.88;;;-0.72;76.15
9187;BME280;7273;48.902;9.410;2022-12-18T14:04:38;99162.22;;;-0.75;75.77
9187;BME280;7273;48.902;9.410;2022-12-18T14:07:07;99163.88;;;-0.74;76.09
9187;BME280;7273;48.902;9.410;2022-12-18T14:09:47;99164.19;;;-0.69;76.09
9187;BME280;7273;48.902;9.410;2022-12-18T14:12:21;99171.50;;;-0.71;76.14
9187;BME280;7273;48.902;9.410;2022-12-18T14:17:44;99176.63;;;-0.70;76.00
9187;BME280;7273;48.902;9.410;2022-12-18T14:20:17;99178.97;;;-0.75;76.13
9187;BME280;7273;48.902;9.410;2022-12-18T14:22:45;99189.13;;;-0.78;76.13
9187;BME280;7273;48.902;9.410;2022-12-18T14:25:23;99187.19;;;-0.84;76.24
9187;BME280;7273;48.902;9.410;2022-12-18T14:28:13;99187.47;;;-0.79;76.31
9187;BME280;7273;48.902;9.410;2022-12-18T14:30:42;99188.50;;;-0.80;76.07
9187;BME280;7273;48.902;9.410;2022-12-18T14:33:11;99187.47;;;-0.79;76.32
9187;BME280;7273;48.902;9.410;2022-12-18T14:35:42;99186.75;;;-0.96;76.29
9187;BME280;7273;48.902;9.410;2022-12-18T14:40:57;99181.28;;;-0.94;76.47
9187;BME280;7273;48.902;9.410;2022-12-18T14:43:23;99180.28;;;-0.93;76.28
9187;BME280;7273;48.902;9.410;2022-12-18T14:45:49;99180.50;;;-1.03;76.31
9187;BME280;7273;48.902;9.410;2022-12-18T14:50:58;99170.53;;;-1.01;76.54
9187;BME280;7273;48.902;9.410;2022-12-18T14:54:18;99182.34;;;-1.03;76.38
9187;BME280;7273;48.902;9.410;2022-12-18T14:56:36;99182.16;;;-1.02;76.54
9187;BME280;7273;48.902;9.410;2022-12-18T14:59:16;99182.03;;;-1.08;76.61
9187;BME280;7273;48.902;9.410;2022-12-18T15:01:47;99178.56;;;-1.09;76.54
9187;BME280;7273;48.902;9.410;2022-12-18T15:04:28;99176.00;;;-1.25;76.40
9187;BME280;7273;48.902;9.410;2022-12-18T15:07:07;99182.94;;;-1.24;76.59
9187;BME280;7273;48.902;9.410;2022-12-18T15:09:34;99182.47;;;-1.27;76.59
9187;BME280;7273;48.902;9.410;2022-12-18T15:12:00;99175.78;;;-1.46;76.38
9187;BME280;7273;48.902;9.410;2022-12-18T15:16:55;99179.72;;;-1.42;76.61
9187;BME280;7273;48.902;9.410;2022-12-18T15:19:22;99181.13;;;-1.54;76.64
9187;BME280;7273;48.902;9.410;2022-12-18T15:21:53;99186.06;;;-1.51;76.83
9187;BME280;7273;48.902;9.410;2022-12-18T15:24:24;99183.44;;;-1.51;76.88
9187;BME280;7273;48.902;9.410;2022-12-18T15:26:51;99183.94;;;-1.56;76.79
9187;BME280;7273;48.902;9.410;2022-12-18T15:29:21;99177.84;;;-1.64;76.85
9187;BME280;7273;48.902;9.410;2022-12-18T15:32:04;99174.03;;;-1.70;77.30
9187;BME280;7273;48.902;9.410;2022-12-18T15:34:31;99173.69;;;-1.67;77.21
9187;BME280;7273;48.902;9.410;2022-12-18T15:36:57;99168.44;;;-1.75;77.34